Time;durP1;ratioP1;P1;durP2;ratioP2;P2;SDS_P1;SDS_P2;PMS_P1;PMS_P2;Temp;Humidity;BMP_temperature;BMP_pressure;BME280_temperature;BME280_humidity;BME280_pressure;Samples;Min_cycle;Max_cycle;Signal;HPM_P1;HPM_P2
2021/01/18 00:02:00;;;;;;;45.97;19.70;;;;;;;-3.49;83.77;101543.63;5010362;28;20125;-76
2021/01/18 00:04:28;;;;;;;41.88;19.83;;;;;;;-3.52;83.79;101528.13;4999809;28;20042;-77
2021/01/18 00:06:55;;;;;;;40.00;18.33;;;;;;;-3.49;83.86;101525.63;5004039;28;20052;-77
2021/01/18 00:09:22;;;;;;;40.22;19.05;;;;;;;-3.41;84.27;101528.31;5009413;28;20061;-78
2021/01/18 00:11:51;;;;;;;41.83;19.90;;;;;;;-3.55;84.19;101522.13;5024154;28;20046;-77
2021/01/18 00:14:18;;;;;;;46.25;20.98;;;;;;;-3.59;84.04;101516.06;5002562;28;20038;-78
2021/01/18 00:16:44;;;;;;;46.38;20.80;;;;;;;-3.61;84.30;101513.44;5020246;28;20033;-79
2021/01/18 00:19:36;;;;;;;45.08;20.98;;;;;;;-3.62;84.91;101514.28;5033361;28;20042;-78
2021/01/18 00:22:03;;;;;;;48.08;21.83;;;;;;;-3.86;84.43;101519.13;5021840;28;20073;-78
2021/01/18 00:24:29;;;;;;;42.42;20.40;;;;;;;-3.84;85.33;101520.00;5015064;28;20072;-78
2021/01/18 00:26:56;;;;;;;45.65;19.83;;;;;;;-3.85;85.34;101519.13;5016596;28;20048;-76
2021/01/18 00:29:23;;;;;;;46.33;20.73;;;;;;;-3.85;85.72;101515.69;5003532;28;20076;-79
2021/01/18 00:31:50;;;;;;;42.88;19.25;;;;;;;-3.89;85.37;101504.47;5016744;28;20050;-79
2021/01/18 00:34:17;;;;;;;42.40;18.67;;;;;;;-3.83;85.05;101502.03;5032183;28;20037;-79
2021/01/18 00:36:47;;;;;;;42.72;19.33;;;;;;;-4.01;85.43;101500.88;5026730;28;20053;-78
2021/01/18 00:39:14;;;;;;;46.92;21.55;;;;;;;-4.09;85.33;101504.22;4995257;28;20077;-78
2021/01/18 00:41:42;;;;;;;48.45;20.95;;;;;;;-4.10;85.74;101507.63;5018889;28;20081;-78
2021/01/18 00:44:08;;;;;;;42.83;19.50;;;;;;;-4.15;85.94;101506.66;4993938;28;20287;-80
2021/01/18 00:46:35;;;;;;;49.67;20.90;;;;;;;-4.10;85.98;101499.03;5020947;28;20117;-79
2021/01/18 00:49:02;;;;;;;47.97;19.60;;;;;;;-4.01;86.50;101500.88;5022434;28;20057;-78
2021/01/18 00:51:39;;;;;;;44.92;21.08;;;;;;;-4.12;86.63;101493.00;5011209;28;21057;-79
2021/01/18 00:54:06;;;;;;;40.00;18.75;;;;;;;-4.09;85.83;101501.63;5006346;28;20136;-78
2021/01/18 00:56:33;;;;;;;45.72;20.20;;;;;;;-4.12;86.06;101495.56;5009128;28;20045;-78
2021/01/18 00:58:59;;;;;;;42.70;19.25;;;;;;;-4.19;86.41;101504.88;5012070;28;20050;-78
2021/01/18 01:01:26;;;;;;;46.40;19.27;;;;;;;-4.08;85.51;101492.22;4993023;28;20057;-80
2021/01/18 01:03:53;;;;;;;40.25;18.52;;;;;;;-3.99;85.24;101497.50;5022631;28;20030;-78
2021/01/18 01:06:20;;;;;;;42.58;19.50;;;;;;;-4.03;86.00;101492.28;4994057;28;20061;-79
2021/01/18 01:08:46;;;;;;;42.90;19.00;;;;;;;-4.03;86.40;101497.41;5012099;28;20069;-78
2021/01/18 01:11:13;;;;;;;45.72;19.25;;;;;;;-4.08;86.13;101493.06;4992971;28;20113;-78
2021/01/18 01:13:40;;;;;;;45.95;19.00;;;;;;;-4.03;85.76;101493.13;4999026;28;20052;-79
2021/01/18 01:16:06;;;;;;;42.22;19.08;;;;;;;-4.05;86.14;101493.94;5016917;28;20060;-77
2021/01/18 01:18:33;;;;;;;45.83;19.23;;;;;;;-4.15;85.99;101488.66;5019354;28;20119;-78
2021/01/18 01:21:00;;;;;;;42.88;19.05;;;;;;;-4.12;86.88;101487.88;5016131;28;20064;-80
2021/01/18 01:23:27;;;;;;;45.22;19.40;;;;;;;-4.33;86.57;101491.81;5026196;28;20064;-79
2021/01/18 01:25:54;;;;;;;43.90;19.17;;;;;;;-4.35;86.50;101492.66;5032688;28;20096;-79
2021/01/18 01:28:21;;;;;;;49.15;21.17;;;;;;;-4.31;86.95;101486.72;5018639;28;20058;-79
2021/01/18 01:30:48;;;;;;;44.67;18.77;;;;;;;-4.18;86.49;101496.34;5025941;28;20145;-77
2021/01/18 01:33:15;;;;;;;43.17;19.48;;;;;;;-4.26;86.58;101489.38;5000607;28;20057;-76
2021/01/18 01:35:41;;;;;;;47.55;19.02;;;;;;;-4.38;86.63;101482.31;5011281;28;20046;-76
2021/01/18 01:38:08;;;;;;;47.20;18.83;;;;;;;-4.21;86.96;101474.88;5000967;28;20108;-76
2021/01/18 01:40:35;;;;;;;41.28;18.45;;;;;;;-4.36;86.83;101475.50;5005395;28;20144;-75
2021/01/18 01:43:03;;;;;;;43.33;20.33;;;;;;;-4.34;87.20;101476.38;5001805;28;20152;-79
2021/01/18 01:45:30;;;;;;;44.45;19.15;;;;;;;-4.33;87.20;101478.09;4981536;28;20434;-79
2021/01/18 01:47:57;;;;;;;50.50;21.05;;;;;;;-4.34;87.09;101491.81;5006668;28;20037;-79
2021/01/18 01:50:29;;;;;;;47.13;20.75;;;;;;;-4.40;87.24;101484.00;5013666;28;20064;-77
2021/01/18 01:52:59;;;;;;;53.30;22.23;;;;;;;-4.36;87.09;101485.78;4996778;28;20037;-76
2021/01/18 01:55:30;;;;;;;45.95;20.73;;;;;;;-4.22;87.15;101481.72;5004511;28;20034;-77
2021/01/18 01:57:59;;;;;;;48.78;21.05;;;;;;;-4.36;87.31;101485.78;4998358;28;20485;-76
2021/01/18 02:00:36;;;;;;;56.47;21.48;;;;;;;-4.35;86.27;101479.81;5001557;28;20058;-77
2021/01/18 02:03:15;;;;;;;49.38;20.58;;;;;;;-4.38;87.63;101472.91;4998500;28;20473;-76
2021/01/18 02:05:43;;;;;;;44.97;19.95;;;;;;;-4.43;86.84;101473.66;4995775;28;20050;-75
2021/01/18 02:08:10;;;;;;;45.30;20.60;;;;;;;-4.49;87.45;101473.59;5006403;28;20138;-76
2021/01/18 02:10:37;;;;;;;46.30;19.50;;;;;;;-4.46;87.75;101473.63;4994960;28;20046;-75
2021/01/18 02:13:13;;;;;;;47.55;19.63;;;;;;;-4.45;87.54;101472.78;4986456;28;20085;-79
2021/01/18 02:15:52;;;;;;;45.25;19.92;;;;;;;-4.49;88.00;101471.88;5018971;28;20062;-79
2021/01/18 02:19:00;;;;;;;50.22;20.90;;;;;;;-4.56;87.93;101464.91;5010066;28;20149;-79
2021/01/18 02:21:57;;;;;;;52.47;20.33;;;;;;;-4.65;87.79;101463.03;5005530;28;20042;-79
2021/01/18 02:24:52;;;;;;;49.53;21.00;;;;;;;-4.67;87.97;101459.59;5001907;28;20072;-78
2021/01/18 02:27:29;;;;;;;47.20;20.70;;;;;;;-4.67;89.15;101462.16;4996131;28;20353;-78
2021/01/18 02:30:08;;;;;;;49.78;20.70;;;;;;;-4.56;88.89;101462.31;4995859;28;20064;-79
2021/01/18 02:32:59;;;;;;;51.05;21.25;;;;;;;-4.62;88.35;101460.53;5022104;28;20121;-78
2021/01/18 02:35:41;;;;;;;48.17;20.80;;;;;;;-4.60;87.90;101463.09;4993118;28;20046;-79
2021/01/18 02:38:20;;;;;;;45.35;20.20;;;;;;;-4.59;88.06;101463.16;5009451;28;20057;-78
2021/01/18 02:40:59;;;;;;;47.63;19.35;;;;;;;-4.56;87.65;101464.91;4981792;28;20038;-80
2021/01/18 02:43:29;;;;;;;47.33;20.52;;;;;;;-4.63;88.28;101463.09;5012982;28;20116;-78
2021/01/18 02:45:56;;;;;;;48.17;21.13;;;;;;;-4.58;88.14;101466.59;5007276;28;20057;-77
2021/01/18 02:48:24;;;;;;;49.53;20.48;;;;;;;-4.48;88.45;101465.03;5004559;28;20073;-76
2021/01/18 02:50:52;;;;;;;46.03;21.05;;;;;;;-4.53;87.66;101448.69;5007971;28;20683;-75
2021/01/18 02:53:18;;;;;;;51.08;22.52;;;;;;;-4.56;88.14;101454.63;5008251;28;20226;-75
2021/01/18 02:55:45;;;;;;;45.45;19.50;;;;;;;-4.45;87.89;101450.53;5008651;28;20129;-75
2021/01/18 02:58:15;;;;;;;51.45;22.45;;;;;;;-4.44;87.25;101444.53;5003665;28;20145;-77
2021/01/18 03:00:49;;;;;;;51.13;21.77;;;;;;;-4.49;86.85;101447.88;5012727;28;20050;-76
2021/01/18 03:03:37;;;;;;;46.28;21.33;;;;;;;-4.47;87.58;101441.06;4994808;28;20742;-77
2021/01/18 03:06:12;;;;;;;51.60;22.30;;;;;;;-4.48;86.68;101442.75;5016400;28;20034;-76
2021/01/18 03:08:43;;;;;;;50.45;22.10;;;;;;;-4.35;87.34;101442.09;5014184;28;20121;-76
2021/01/18 03:11:14;;;;;;;51.13;21.48;;;;;;;-4.28;87.03;101435.34;5028344;28;20033;-75
2021/01/18 03:13:49;;;;;;;44.78;22.00;;;;;;;-4.25;86.11;101437.09;5009220;28;20042;-76
2021/01/18 03:16:25;;;;;;;42.03;20.00;;;;;;;-4.20;85.97;101435.47;5007790;28;20054;-77
2021/01/18 03:18:53;;;;;;;54.47;21.02;;;;;;;-4.09;85.41;101442.50;4991335;28;20081;-77
2021/01/18 03:21:20;;;;;;;51.47;22.00;;;;;;;-4.13;85.51;101437.28;5007030;28;20054;-76
2021/01/18 03:23:46;;;;;;;51.78;20.85;;;;;;;-4.16;85.13;101440.66;4980718;28;20075;-76
2021/01/18 03:26:13;;;;;;;48.88;21.45;;;;;;;-3.98;85.06;101437.47;4992266;28;20042;-76
2021/01/18 03:28:40;;;;;;;46.40;21.02;;;;;;;-4.10;84.70;101421.88;5004774;28;20060;-75
2021/01/18 03:31:07;;;;;;;46.35;21.75;;;;;;;-4.27;85.21;101424.25;4986236;28;20046;-75
2021/01/18 03:33:34;;;;;;;56.47;22.25;;;;;;;-4.35;86.14;101429.25;4995423;28;20082;-76
2021/01/18 03:36:00;;;;;;;49.95;19.58;;;;;;;-4.13;nan;101424.44;4996693;28;20285;-75
2021/01/18 03:38:28;;;;;;;48.50;21.73;;;;;;;-4.08;85.44;101425.34;4994614;28;21270;-76
2021/01/18 03:40:55;;;;;;;44.50;19.70;;;;;;;-4.03;85.04;101433.13;5009139;28;20080;-76
2021/01/18 03:43:21;;;;;;;47.53;20.27;;;;;;;-4.00;85.47;101421.19;5025003;28;20047;-77
2021/01/18 03:45:49;;;;;;;42.50;20.13;;;;;;;-3.97;85.37;101420.34;5030184;28;20072;-76
2021/01/18 03:48:16;;;;;;;47.88;20.60;;;;;;;-4.07;84.55;101425.38;5035280;28;20061;-76
2021/01/18 03:50:43;;;;;;;48.53;20.05;;;;;;;-4.15;84.96;101416.69;5019474;28;20091;-76
2021/01/18 03:53:10;;;;;;;49.75;20.90;;;;;;;-4.13;85.37;101425.28;5008451;28;20073;-75
2021/01/18 03:55:38;;;;;;;48.15;22.08;;;;;;;-4.10;85.59;101427.03;5015658;28;20526;-77
2021/01/18 03:58:05;;;;;;;44.50;20.10;;;;;;;-4.08;85.14;101423.63;5006464;28;20231;-77
2021/01/18 04:00:32;;;;;;;49.83;20.50;;;;;;;-4.01;85.37;101419.44;5013279;28;20048;-75
2021/01/18 04:02:59;;;;;;;48.72;20.67;;;;;;;-3.98;84.42;101418.63;5012450;28;20053;-76
2021/01/18 04:05:26;;;;;;;48.28;20.80;;;;;;;-3.97;84.81;101421.19;5009482;28;20054;-77
2021/01/18 04:07:54;;;;;;;46.80;20.00;;;;;;;-4.03;84.76;101415.13;5011165;28;20054;-75
2021/01/18 04:10:26;;;;;;;44.83;19.75;;;;;;;-4.14;85.30;101420.13;4996320;28;20096;-76
2021/01/18 04:12:54;;;;;;;44.95;20.13;;;;;;;-4.04;84.35;101424.56;5006531;28;20100;-77
2021/01/18 04:15:22;;;;;;;48.97;21.30;;;;;;;-4.10;84.85;101422.78;5007858;28;20351;-76
2021/01/18 04:17:51;;;;;;;47.15;20.67;;;;;;;-4.05;84.79;101421.94;5009543;28;20334;-76
2021/01/18 04:20:19;;;;;;;50.28;21.48;;;;;;;-4.06;84.71;101418.50;4988990;28;20169;-77
2021/01/18 04:22:53;;;;;;;47.10;20.92;;;;;;;-4.18;84.36;101411.50;5009011;28;20058;-79
2021/01/18 04:25:23;;;;;;;47.95;21.92;;;;;;;-4.04;85.11;101410.84;5019779;28;20066;-78
2021/01/18 04:28:02;;;;;;;48.47;21.02;;;;;;;-4.04;84.71;101414.28;5014809;28;20045;-78
2021/01/18 04:30:33;;;;;;;44.75;19.08;;;;;;;-4.17;85.38;101399.50;4988293;28;20104;-79
2021/01/18 04:33:05;;;;;;;50.28;21.80;;;;;;;-4.15;84.51;101398.69;5006468;28;20060;-78
2021/01/18 04:35:36;;;;;;;45.65;20.58;;;;;;;-4.11;85.17;101403.03;5023790;28;20104;-79
2021/01/18 04:38:04;;;;;;;45.35;20.55;;;;;;;-3.91;84.67;101405.00;5023407;28;20110;-78
2021/01/18 04:40:32;;;;;;;46.38;20.63;;;;;;;-3.87;84.45;101399.06;5026657;28;20098;-76
2021/01/18 04:42:59;;;;;;;46.53;20.38;;;;;;;-3.93;84.09;101394.69;5025567;28;20062;-78
2021/01/18 04:45:28;;;;;;;49.35;21.08;;;;;;;-3.85;84.13;101399.94;5006896;28;20068;-78
2021/01/18 04:47:57;;;;;;;48.10;20.77;;;;;;;-3.82;83.72;101395.69;5012643;28;20673;-79
2021/01/18 04:50:26;;;;;;;49.10;21.40;;;;;;;-3.82;83.55;101394.84;5017541;28;20101;-79
2021/01/18 04:52:54;;;;;;;44.72;20.40;;;;;;;-3.84;83.97;101396.50;4997382;28;20056;-78
2021/01/18 04:55:29;;;;;;;48.20;19.83;;;;;;;-3.97;84.33;101399.75;4987577;28;20053;-79
2021/01/18 04:58:17;;;;;;;50.87;20.23;;;;;;;-3.91;83.78;101405.88;5023189;28;20064;-79
2021/01/18 05:00:50;;;;;;;49.97;20.27;;;;;;;-3.91;83.68;101394.72;5024846;28;20063;-78
2021/01/18 05:03:20;;;;;;;43.75;19.40;;;;;;;-3.93;83.45;101396.41;5016803;28;20065;-78
2021/01/18 05:06:06;;;;;;;48.78;21.17;;;;;;;-3.90;83.06;101396.44;5013928;28;20069;-78
2021/01/18 05:09:00;;;;;;;49.38;21.25;;;;;;;-3.96;83.90;101398.91;4999633;28;20206;-78
2021/01/18 05:11:27;;;;;;;49.13;20.55;;;;;;;-3.93;84.08;101401.53;5015362;28;20181;-78
2021/01/18 05:14:02;;;;;;;47.60;20.58;;;;;;;-3.99;84.37;101399.75;5006524;28;20053;-77
2021/01/18 05:16:33;;;;;;;49.88;20.73;;;;;;;-3.95;83.71;101398.09;5015548;28;20056;-78
2021/01/18 05:19:11;;;;;;;42.90;19.88;;;;;;;-4.04;84.29;101396.28;5018008;28;20085;-78
2021/01/18 05:21:42;;;;;;;49.10;19.95;;;;;;;-4.09;84.22;101401.34;5027900;28;20046;-78
2021/01/18 05:24:09;;;;;;;46.58;20.00;;;;;;;-4.01;84.19;101398.00;4998253;28;20073;-78
2021/01/18 05:26:36;;;;;;;46.15;21.55;;;;;;;-3.93;83.96;101401.53;5018094;28;20046;-78
2021/01/18 05:29:04;;;;;;;55.08;20.45;;;;;;;-3.84;83.61;101392.22;5009880;28;22205;-76
2021/01/18 05:31:38;;;;;;;51.85;21.75;;;;;;;-3.82;83.47;101392.25;5009140;28;20054;-77
2021/01/18 05:34:14;;;;;;;51.38;20.20;;;;;;;-3.80;82.95;101384.56;5014168;28;20072;-76
2021/01/18 05:36:44;;;;;;;49.45;21.40;;;;;;;-3.89;83.57;101393.03;4985460;28;20034;-75
2021/01/18 05:39:13;;;;;;;43.88;19.73;;;;;;;-3.94;83.51;101400.69;5006622;28;20050;-75
2021/01/18 05:41:41;;;;;;;53.67;22.90;;;;;;;-3.93;83.49;101392.09;5010075;28;20041;-76
2021/01/18 05:44:09;;;;;;;50.17;22.92;;;;;;;-3.97;84.27;101395.47;5004685;28;20119;-76
2021/01/18 05:46:38;;;;;;;49.65;22.75;;;;;;;-3.90;84.01;101396.44;5008547;28;20071;-76
2021/01/18 05:49:13;;;;;;;51.35;22.58;;;;;;;-3.98;84.39;101398.03;5002006;28;20046;-76
2021/01/18 05:51:40;;;;;;;44.90;21.95;;;;;;;-3.97;83.60;101399.75;4992960;28;20054;-76
2021/01/18 05:54:11;;;;;;;50.83;21.52;;;;;;;-3.84;83.95;101405.09;4991345;28;20076;-75
2021/01/18 05:56:46;;;;;;;56.40;23.35;;;;;;;-3.86;83.53;101395.63;5009503;28;20048;-76
2021/01/18 05:59:14;;;;;;;;;;;;;;;-3.91;83.56;101395.59;5005215;28;20066;-75
2021/01/18 06:01:42;;;;;;;44.28;20.90;;;;;;;-3.81;83.30;101386.25;5003041;28;19928;-77
2021/01/18 06:04:27;;;;;;;54.42;21.17;;;;;;;-3.87;83.63;101391.34;4991947;28;20050;-76
2021/01/18 06:06:58;;;;;;;52.40;22.27;;;;;;;-3.75;84.07;101383.75;4999448;28;20074;-77
2021/01/18 06:09:42;;;;;;;44.38;21.15;;;;;;;-3.73;83.77;101394.09;5000131;28;20033;-76
2021/01/18 06:12:28;;;;;;;52.17;21.67;;;;;;;-3.73;83.94;101383.78;4973832;28;20518;-76
2021/01/18 06:15:02;;;;;;;;;;;;;;;-3.80;83.66;101393.13;5001926;28;20108;-77
2021/01/18 06:17:30;;;;;;;54.30;21.88;;;;;;;-3.68;83.42;101400.13;4993909;28;19960;-76
2021/01/18 06:20:01;;;;;;;53.10;23.33;;;;;;;-3.59;83.60;101395.09;4998249;28;20065;-75
2021/01/18 06:22:28;;;;;;;47.10;23.15;;;;;;;-3.62;83.14;101397.63;4995690;28;20072;-76
2021/01/18 06:24:56;;;;;;;50.63;22.60;;;;;;;-3.66;83.24;101394.16;5009404;28;20042;-74
2021/01/18 06:27:33;;;;;;;52.97;21.55;;;;;;;-3.62;83.08;101395.91;4971812;28;20042;-76
2021/01/18 06:29:59;;;;;;;52.85;23.17;;;;;;;-3.54;83.28;101390.00;5006574;28;20083;-76
2021/01/18 06:32:30;;;;;;;55.50;24.13;;;;;;;-3.62;82.67;101382.19;5010537;28;20049;-76
2021/01/18 06:35:01;;;;;;;54.42;24.40;;;;;;;-3.74;83.37;101392.31;5004134;28;20054;-76
2021/01/18 06:37:30;;;;;;;54.97;25.25;;;;;;;-3.70;83.57;101384.66;5011876;28;20633;-76
2021/01/18 06:40:01;;;;;;;52.60;25.05;;;;;;;-3.62;82.59;101392.47;4992101;28;20057;-76
2021/01/18 06:42:28;;;;;;;51.25;24.23;;;;;;;-3.70;83.33;101401.81;5006696;28;20125;-76
2021/01/18 06:44:55;;;;;;;58.13;26.02;;;;;;;-3.57;82.89;101404.53;5011093;28;20759;-76
2021/01/18 06:47:30;;;;;;;62.92;26.92;;;;;;;-3.59;83.11;101416.53;5002572;28;20065;-76
2021/01/18 06:50:01;;;;;;;61.03;25.98;;;;;;;-3.60;83.39;101421.69;4999088;28;20038;-77
2021/01/18 06:52:34;;;;;;;49.90;23.60;;;;;;;-3.57;83.24;101417.41;5000495;28;20046;-75
2021/01/18 06:55:04;;;;;;;50.63;23.45;;;;;;;-3.50;82.83;101413.22;5011015;28;20046;-76
2021/01/18 06:57:56;;;;;;;53.30;24.27;;;;;;;-3.58;83.21;101409.69;5011522;28;20076;-76
2021/01/18 07:00:23;;;;;;;55.25;22.52;;;;;;;-3.62;83.24;101415.66;5006630;28;20062;-76
2021/01/18 07:03:01;;;;;;;45.05;22.75;;;;;;;-3.58;83.63;101420.84;5021416;28;20069;-77
2021/01/18 07:05:35;;;;;;;53.38;23.60;;;;;;;-3.50;83.50;101414.94;5027311;28;20069;-75
2021/01/18 07:08:15;;;;;;;51.65;22.85;;;;;;;-3.44;82.91;101412.41;5018870;28;20508;-77
2021/01/18 07:10:50;;;;;;;51.38;22.30;;;;;;;-3.43;83.01;101421.84;4999574;28;20069;-77
2021/01/18 07:13:18;;;;;;;49.38;23.08;;;;;;;-3.33;83.18;101421.13;5006276;28;20057;-76
2021/01/18 07:15:50;;;;;;;45.58;21.80;;;;;;;-3.20;82.73;101414.38;4983788;28;20080;-79
2021/01/18 07:18:19;;;;;;;49.75;21.77;;;;;;;-3.25;82.06;101419.47;5008409;28;20058;-77
2021/01/18 07:20:46;;;;;;;53.95;23.77;;;;;;;-3.24;82.28;101421.22;5000753;28;20153;-77
2021/01/18 07:23:28;;;;;;;48.92;22.63;;;;;;;-3.06;82.23;101415.41;5018640;28;20137;-78
2021/01/18 07:26:17;;;;;;;56.30;24.60;;;;;;;-3.13;82.63;101414.47;5026698;28;20068;-77
2021/01/18 07:28:49;;;;;;;54.30;22.73;;;;;;;-3.04;82.28;101411.09;5000461;28;20073;-77
2021/01/18 07:31:19;;;;;;;50.85;22.67;;;;;;;-3.03;81.94;101409.38;5014860;28;20058;-78
2021/01/18 07:33:46;;;;;;;51.47;23.05;;;;;;;-3.04;82.00;101405.09;5013277;28;20050;-76
2021/01/18 07:36:28;;;;;;;57.10;24.25;;;;;;;-3.06;82.69;101410.25;5001101;28;20069;-75
2021/01/18 07:38:55;;;;;;;50.05;23.02;;;;;;;-3.04;82.59;101407.66;5013684;28;20062;-76
2021/01/18 07:41:32;;;;;;;52.10;23.73;;;;;;;-3.24;83.54;101405.78;5007062;28;20046;-78
2021/01/18 07:43:59;;;;;;;51.30;22.38;;;;;;;-3.33;83.50;101406.53;5018257;28;20033;-79
2021/01/18 07:46:28;;;;;;;51.78;23.40;;;;;;;-3.06;83.17;101416.25;5007293;28;20058;-76
2021/01/18 07:48:57;;;;;;;63.22;25.00;;;;;;;-3.09;83.51;101403.34;5026596;28;20106;-78
2021/01/18 07:51:27;;;;;;;54.92;25.90;;;;;;;-3.43;84.54;101409.00;5009419;28;20054;-78
2021/01/18 07:53:54;;;;;;;52.08;24.77;;;;;;;-3.09;84.00;101410.19;5009893;28;20042;-76
2021/01/18 07:56:28;;;;;;;51.83;24.27;;;;;;;-3.24;83.44;101400.63;5039682;28;20140;-77
2021/01/18 07:59:02;;;;;;;51.28;23.58;;;;;;;-2.96;83.11;101411.19;5036424;28;20084;-77
2021/01/18 08:01:30;;;;;;;53.17;25.10;;;;;;;-2.83;82.64;101402.72;4996269;28;20140;-76
2021/01/18 08:04:16;;;;;;;54.25;25.23;;;;;;;-2.77;81.85;101402.75;4996216;28;20065;-78
2021/01/18 08:07:06;;;;;;;49.17;22.30;;;;;;;-2.87;82.14;101408.69;5020883;28;20051;-77
2021/01/18 08:09:39;;;;;;;50.10;24.13;;;;;;;-2.87;83.08;101416.41;5020012;28;20045;-78
2021/01/18 08:12:30;;;;;;;58.80;25.23;;;;;;;-2.73;82.01;101412.25;5018796;28;20062;-76
2021/01/18 08:15:06;;;;;;;50.42;24.48;;;;;;;-2.68;81.92;101412.28;5013611;28;20089;-78
2021/01/18 08:17:34;;;;;;;49.22;24.58;;;;;;;-2.75;82.58;101411.34;5015096;28;20104;-78
2021/01/18 08:20:15;;;;;;;55.30;25.70;;;;;;;-2.69;82.43;101408.84;5017484;28;20049;-78
2021/01/18 08:22:42;;;;;;;50.85;24.20;;;;;;;-2.68;83.07;101402.81;4996957;28;20133;-78
2021/01/18 08:25:09;;;;;;;54.67;26.30;;;;;;;-2.95;83.25;101398.31;4995205;28;20046;-77
2021/01/18 08:27:38;;;;;;;51.05;23.70;;;;;;;-2.90;83.67;101404.34;5004537;28;20049;-77
2021/01/18 08:30:26;;;;;;;53.60;25.67;;;;;;;-2.75;83.59;101389.88;4976704;28;20450;-77
2021/01/18 08:33:12;;;;;;;53.70;25.75;;;;;;;-2.85;84.48;101397.53;5009361;28;20122;-78
2021/01/18 08:35:46;;;;;;;58.83;25.63;;;;;;;-2.73;83.96;101391.63;4984080;28;20145;-75
2021/01/18 08:38:39;;;;;;;61.38;28.08;;;;;;;-2.41;86.89;101388.41;5012936;28;20097;-77
2021/01/18 08:41:09;;;;;;;58.83;26.42;;;;;;;-2.35;84.72;101397.03;5001193;28;20068;-76
2021/01/18 08:43:53;;;;;;;54.92;26.65;;;;;;;-2.44;83.61;101390.97;5002491;28;20052;-78
2021/01/18 08:46:39;;;;;;;48.20;24.80;;;;;;;-2.50;83.83;101399.53;5001509;28;20046;-76
2021/01/18 08:49:24;;;;;;;48.03;25.60;;;;;;;-2.51;83.39;101396.94;4975905;28;20128;-76
2021/01/18 08:51:51;;;;;;;48.95;24.05;;;;;;;-2.32;82.98;101393.63;5001701;28;20126;-78
2021/01/18 08:54:32;;;;;;;54.58;25.85;;;;;;;-2.41;83.70;101397.00;5022229;28;20112;-77
2021/01/18 08:57:23;;;;;;;56.63;25.85;;;;;;;-2.37;82.50;101396.19;5010695;28;20164;-78
2021/01/18 09:00:09;;;;;;;50.80;24.52;;;;;;;-2.32;82.93;101391.91;5006329;28;20054;-76
2021/01/18 09:02:37;;;;;;;;;;;;;;;-2.24;82.24;101401.41;5003735;28;20463;-75
2021/01/18 09:05:14;;;;;;;48.47;24.30;;;;;;;-2.40;82.53;101403.88;4987209;28;19952;-77
2021/01/18 09:07:45;;;;;;;59.00;26.63;;;;;;;-2.40;83.81;101400.44;5004928;28;20061;-78
2021/01/18 09:10:30;;;;;;;57.03;27.33;;;;;;;-2.37;83.08;101403.06;5014726;28;20061;-81
2021/01/18 09:13:03;;;;;;;56.75;25.42;;;;;;;-2.12;82.77;101397.16;4988948;28;20045;-78
2021/01/18 09:15:30;;;;;;;54.10;26.38;;;;;;;-2.20;82.37;101392.84;4988601;28;20790;-76
2021/01/18 09:18:09;;;;;;;54.83;26.63;;;;;;;-2.20;82.90;101401.44;4989148;28;20056;-77
2021/01/18 09:20:38;;;;;;;56.78;26.42;;;;;;;-2.11;82.45;101392.91;5008423;28;20167;-78
2021/01/18 09:23:07;;;;;;;56.20;26.73;;;;;;;-2.00;81.97;101391.22;5003383;28;20081;-77
2021/01/18 09:25:59;;;;;;;57.22;26.73;;;;;;;-1.89;81.86;101391.25;5008244;28;20073;-77
2021/01/18 09:28:27;;;;;;;51.80;26.38;;;;;;;-1.83;81.10;101368.94;4987912;28;21046;-79
2021/01/18 09:30:55;;;;;;;57.53;27.23;;;;;;;-1.75;81.42;101381.00;5007646;28;20060;-80
2021/01/18 09:33:26;;;;;;;56.95;27.73;;;;;;;-1.71;81.29;101388.78;4990044;28;20057;-80
2021/01/18 09:35:53;;;;;;;48.30;25.92;;;;;;;-1.79;81.76;101385.28;5009930;28;20248;-77
2021/01/18 09:38:20;;;;;;;48.72;25.05;;;;;;;-1.59;81.39;101375.03;5002992;28;20065;-78
2021/01/18 09:40:47;;;;;;;50.55;24.67;;;;;;;-1.47;80.60;101379.38;5004617;28;20130;-77
2021/01/18 09:43:19;;;;;;;48.05;26.63;;;;;;;-1.99;82.77;101376.59;5002207;28;20058;-76
2021/01/18 09:45:53;;;;;;;55.22;27.25;;;;;;;-1.62;81.51;101369.84;4986512;28;20049;-78
2021/01/18 09:48:24;;;;;;;49.50;25.50;;;;;;;-1.69;81.56;101373.28;5004935;28;20069;-78
2021/01/18 09:50:58;;;;;;;55.45;27.38;;;;;;;-1.54;81.52;101371.59;5013197;28;20062;-76
2021/01/18 09:53:26;;;;;;;50.58;26.85;;;;;;;-1.70;82.10;101377.59;5009030;28;20111;-78
2021/01/18 09:55:55;;;;;;;66.00;28.92;;;;;;;-2.13;84.24;101377.38;5022943;28;20050;-76
2021/01/18 09:58:58;;;;;;;56.58;28.40;;;;;;;-1.72;82.85;101381.88;5031971;28;20121;-78
2021/01/18 10:01:26;;;;;;;60.05;27.15;;;;;;;-1.66;82.56;101379.31;5017931;28;20049;-78
2021/01/18 10:03:59;;;;;;;61.53;28.65;;;;;;;-1.69;82.65;101374.13;5007897;28;20080;-78
2021/01/18 10:06:28;;;;;;;57.20;27.20;;;;;;;-1.94;83.24;101378.34;4996992;28;20141;-78
2021/01/18 10:09:08;;;;;;;54.97;27.08;;;;;;;-1.71;83.34;101380.13;5012981;28;20038;-77
2021/01/18 10:11:46;;;;;;;55.17;28.13;;;;;;;-1.48;82.15;101368.19;4994343;28;20135;-77
2021/01/18 10:14:28;;;;;;;56.78;27.60;;;;;;;-1.45;82.39;101365.59;5010680;28;20053;-81
2021/01/18 10:17:09;;;;;;;55.30;26.50;;;;;;;-1.33;81.58;101354.44;5032443;28;20042;-78
2021/01/18 10:19:37;;;;;;;57.95;29.85;;;;;;;-1.39;81.68;101359.59;5032858;28;20061;-80
2021/01/18 10:22:06;;;;;;;56.55;27.63;;;;;;;-1.21;81.33;101353.59;5022587;28;20056;-81
2021/01/18 10:24:35;;;;;;;60.40;28.13;;;;;;;-1.24;81.61;101357.03;5017298;28;20052;-78
2021/01/18 10:27:04;;;;;;;62.47;29.40;;;;;;;-1.36;81.77;101364.75;5003226;28;20049;-79
2021/01/18 10:29:31;;;;;;;56.47;29.45;;;;;;;-1.28;81.90;101360.47;5024562;28;20064;-81
2021/01/18 10:31:58;;;;;;;52.15;28.70;;;;;;;-1.15;81.45;101356.19;5020765;28;20061;-80
2021/01/18 10:34:31;;;;;;;51.83;27.35;;;;;;;-1.08;81.25;101355.31;5007441;28;20033;-78
2021/01/18 10:37:19;;;;;;;55.30;27.75;;;;;;;-1.16;81.47;101337.22;5028709;28;20061;-79
2021/01/18 10:39:46;;;;;;;58.35;27.45;;;;;;;-1.09;81.21;101341.53;5010479;28;20053;-80
2021/01/18 10:42:18;;;;;;;54.97;27.33;;;;;;;-0.97;81.55;101343.25;5021454;28;20041;-81
2021/01/18 10:44:51;;;;;;;54.78;28.52;;;;;;;-0.87;81.20;101344.13;5007931;28;20069;-79
2021/01/18 10:47:22;;;;;;;55.83;28.83;;;;;;;-0.92;81.46;101346.69;5018012;28;20127;-79
2021/01/18 10:49:54;;;;;;;57.10;29.58;;;;;;;-0.98;82.06;101338.09;5016587;28;20062;-80
2021/01/18 10:52:43;;;;;;;51.78;25.73;;;;;;;-0.99;81.04;101338.94;5015119;28;20084;-78
2021/01/18 10:55:13;;;;;;;56.42;28.42;;;;;;;-1.02;81.13;101337.25;5016456;28;20058;-80
2021/01/18 10:57:46;;;;;;;50.35;27.65;;;;;;;-0.87;81.56;101341.53;5013384;28;20061;-79
2021/01/18 11:00:30;;;;;;;54.33;28.75;;;;;;;-0.88;81.68;101339.81;5000776;28;20065;-79
2021/01/18 11:03:00;;;;;;;57.90;29.38;;;;;;;-0.92;81.82;101336.38;5014353;28;20050;-79
2021/01/18 11:05:37;;;;;;;59.13;29.30;;;;;;;-0.71;82.11;101340.66;5017358;28;20056;-78
2021/01/18 11:08:06;;;;;;;54.08;26.88;;;;;;;-0.63;81.70;101340.63;5009757;28;20082;-78
2021/01/18 11:10:42;;;;;;;53.03;27.33;;;;;;;-0.64;82.07;101334.59;5013982;28;20288;-79
2021/01/18 11:13:29;;;;;;;59.20;28.08;;;;;;;-0.72;82.05;101338.94;5012657;28;20049;-76
2021/01/18 11:15:57;;;;;;;60.00;30.15;;;;;;;-0.81;81.94;101336.34;5001186;28;20058;-75
2021/01/18 11:18:24;;;;;;;64.82;30.15;;;;;;;-0.91;82.54;101332.91;5017611;28;20057;-78
2021/01/18 11:20:54;;;;;;;62.03;31.25;;;;;;;-0.57;82.03;101327.72;5015544;28;20216;-78
2021/01/18 11:23:29;;;;;;;61.58;30.52;;;;;;;-0.83;82.88;101332.91;4999061;28;20066;-78
2021/01/18 11:25:59;;;;;;;54.33;27.60;;;;;;;-0.62;82.67;101326.88;5018445;28;20049;-78
2021/01/18 11:28:28;;;;;;;59.90;29.15;;;;;;;-0.55;82.61;101313.91;5020817;28;20062;-78
2021/01/18 11:31:15;;;;;;;58.92;28.80;;;;;;;-0.53;82.88;101313.91;5023127;28;20054;-76
2021/01/18 11:33:44;;;;;;;58.92;28.73;;;;;;;-0.64;83.02;101311.34;5013264;28;20096;-77